Aérodrome :
LOGIN :

S'inscrire | Disclaimer

   EN    FR    IT 

 










Légende :    VFR   VFR Marginal   IFR   IFR Intensif   IFR Très Intensif
Visi : 
Plafond : 
>= 8 km
>= 3000ft
5 à 8 km
1000 à 3000 ft
1500m à 5 km
500 à 1000 ft
800 à 1500m
200 à 500 ft
< 800m
< 200 ft
Symboles :   Orages  Brouillard  Fortes neiges  Fortes précipitations  Vent > 20 kt
SIGMETs :   Divers  Orages  Givrage  Turbulence  Onde Orograph.  Cendres Volcan.






- Altitude de l'aérodrome : 157 ft
- Code IATA : LIL


LFQQ - Lille Lesquin

DERNIER METAR :
  • 301130Z AUTO 30018KT 9999 SCT031 08/02 Q1023 NOSIG

METARs EXPIRÉS :
  • 301100Z AUTO 29017KT 9999 2600 BKN030 BKN036 OVC210 09/03 Q1023 NOSIG
  • 301030Z AUTO 29018KT 9999 FEW034 BKN210 09/03 Q1023 NOSIG
  • 301000Z AUTO 29014KT 9999 FEW028 BKN043 08/04 Q1023 NOSIG
  • 300930Z AUTO 29014KT 9999 FEW028 BKN049 08/04 Q1023 NOSIG
  • 300900Z AUTO 29010KT 9999 FEW030 BKN048 08/06 Q1022 NOSIG

TAF TAF LFQQ
Valide du 30 à 12h jusqu'au 31 à 18h UTC


301100Z 3012/3118 29014KT 9999 SCT015 BKN030
BECMG 3018/3020 23010KT
PROB40
TEMPO 3022/3108 2000 BR
BECMG 3108/3110 OVC012
PROB30
TEMPO 3111/3115 3000 DZRA OVC007
BECMG 3115/3117 SCT015 BKN030
ATIS : +33 3 20 16 19 54



MET'MAP, la Météo Aéronautique d'un coup d'oeil ! - Copyright ORBIFLY Décembre 2007 - Disclaimer

ORBIFLY MET'MAP TEAM :

Programmation & Développement : Alexandra Zaïnal
Sur une idée originale de : Baudouin d'Aumeries
Soutien technique & logistique : Manuel Goepfert
Assistance : Marc-Olivier Méhu




SOURCES & CREDITS :

   NOAA